Time;durP1;ratioP1;P1;durP2;ratioP2;P2;SDS_P1;SDS_P2;PMS_P1;PMS_P2;Temp;Humidity;BMP_temperature;BMP_pressure;BME280_temperature;BME280_humidity;BME280_pressure;Samples;Min_cycle;Max_cycle;Signal;HPM_P1;HPM_P2
2022/05/30 00:10:38;;;;;;;3.90;2.70;;;;;;;13.02;100.00;99755.47;5069057;23;20052;-80
2022/05/30 00:13:26;;;;;;;4.65;3.13;;;;;;;13.06;100.00;99755.91;5074317;28;20317;-82
2022/05/30 00:15:54;;;;;;;5.03;2.58;;;;;;;13.05;100.00;99760.41;5070808;28;20064;-83
2022/05/30 00:18:26;;;;;;;3.47;2.17;;;;;;;13.08;100.00;99765.31;5077550;28;20021;-81
2022/05/30 00:20:52;;;;;;;2.85;2.22;;;;;;;13.12;100.00;99760.47;5077254;28;20055;-82
2022/05/30 00:23:45;;;;;;;5.57;2.30;;;;;;;13.06;100.00;99771.88;5216524;22;20037;-82
2022/05/30 00:26:49;;;;;;;3.15;2.22;;;;;;;12.89;100.00;99766.84;5074509;28;20137;-81
2022/05/30 00:29:25;;;;;;;2.58;1.88;;;;;;;12.95;100.00;99760.75;5174983;22;20017;-83
2022/05/30 00:32:37;;;;;;;2.47;1.58;;;;;;;13.02;100.00;99759.97;5076604;28;20053;-83
2022/05/30 00:35:40;;;;;;;3.10;1.70;;;;;;;12.97;100.00;99765.88;5068807;28;20025;-81
2022/05/30 00:38:12;;;;;;;2.30;1.65;;;;;;;13.08;100.00;99759.19;5048300;28;20036;-81
2022/05/30 00:40:41;;;;;;;3.30;1.50;;;;;;;13.13;100.00;99756.75;5076198;28;20041;-83
2022/05/30 00:46:33;;;;;;;2.53;1.40;;;;;;;13.03;100.00;99756.28;5055988;28;20059;-82
2022/05/30 00:49:25;;;;;;;2.38;1.38;;;;;;;13.03;100.00;99756.28;5037919;28;20404;-81
2022/05/30 00:52:06;;;;;;;4.72;1.70;;;;;;;13.07;100.00;99746.88;5053841;28;20036;-82
2022/05/30 00:54:44;;;;;;;2.95;1.30;;;;;;;13.23;100.00;99741.25;5057593;28;20034;-81
2022/05/30 00:57:20;;;;;;;3.75;1.50;;;;;;;13.09;100.00;99750.22;5036941;28;20047;-82
2022/05/30 01:00:10;;;;;;;2.50;1.42;;;;;;;13.16;100.00;99745.72;5056772;28;20044;-80
2022/05/30 01:09:44;;;;;;;3.10;1.58;;;;;;;12.86;100.00;99730.00;5054548;28;20046;-84
2022/05/30 01:12:16;;;;;;;2.33;1.60;;;;;;;13.06;100.00;99730.09;5039468;28;20030;-83
2022/05/30 01:15:10;;;;;;;3.15;1.60;;;;;;;13.03;100.00;99729.66;5052981;28;20052;-83
2022/05/30 01:21:05;;;;;;;3.17;1.73;;;;;;;13.03;100.00;99735.81;5346260;22;20091;-82
2022/05/30 01:24:30;;;;;;;5.88;2.03;;;;;;;13.11;100.00;99740.19;5059184;28;20041;-83
2022/05/30 01:28:11;;;;;;;6.32;2.33;;;;;;;13.19;100.00;99734.72;5071008;22;20120;-86
2022/05/30 01:31:00;;;;;;;3.65;1.88;;;;;;;13.25;100.00;99726.75;5060794;28;20029;-83
2022/05/30 01:34:05;;;;;;;4.32;2.05;;;;;;;13.16;100.00;99735.09;5077514;28;20017;-83
2022/05/30 01:36:42;;;;;;;4.85;2.20;;;;;;;13.14;100.00;99727.31;5061307;28;20079;-84
2022/05/30 01:39:10;;;;;;;5.22;1.98;;;;;;;13.18;100.00;99723.25;5077480;28;20040;-84
2022/05/30 01:41:58;;;;;;;5.43;2.40;;;;;;;13.14;100.00;99732.63;5074468;28;20088;-83
2022/05/30 01:45:20;;;;;;;5.47;2.35;;;;;;;13.15;100.00;99734.28;5059644;28;20041;-85
2022/05/30 01:48:04;;;;;;;5.53;2.50;;;;;;;13.25;100.00;99745.38;5134833;22;20040;-84
2022/05/30 01:50:50;;;;;;;4.07;2.65;;;;;;;13.31;100.00;99743.75;5053105;28;20068;-84
2022/05/30 01:53:33;;;;;;;6.15;2.40;;;;;;;13.33;100.00;99742.53;5058026;28;20063;-84
2022/05/30 02:03:08;;;;;;;5.43;2.80;;;;;;;13.39;100.00;99738.25;5077315;28;20071;-82
2022/05/30 02:05:48;;;;;;;4.15;3.22;;;;;;;13.42;100.00;99735.22;5075930;28;20037;-83
2022/05/30 02:08:50;;;;;;;5.30;3.05;;;;;;;13.51;100.00;99741.19;5072078;28;20044;-82
2022/05/30 02:11:19;;;;;;;6.85;3.25;;;;;;;13.43;100.00;99735.00;5060683;28;20044;-84
2022/05/30 02:22:41;;;;;;;5.70;3.78;;;;;;;13.54;100.00;99722.97;5019167;28;20038;-83
2022/05/30 02:25:13;;;;;;;6.85;3.85;;;;;;;13.32;100.00;99718.81;5014819;28;20033;-85
2022/05/30 02:27:58;;;;;;;7.03;4.10;;;;;;;13.49;100.00;99725.38;5018774;28;20042;-83
2022/05/30 02:31:02;;;;;;;6.63;4.20;;;;;;;13.57;100.00;99711.09;5146429;22;20045;-84
2022/05/30 02:36:39;;;;;;;7.78;4.13;;;;;;;13.60;100.00;99711.50;5033846;28;20049;-84
2022/05/30 02:42:04;;;;;;;6.88;4.50;;;;;;;13.34;100.00;99711.44;5011458;26;20065;-84
2022/05/30 02:45:02;;;;;;;7.72;4.65;;;;;;;13.28;100.00;99729.03;4991971;28;20062;-83
2022/05/30 02:47:55;;;;;;;11.45;5.20;;;;;;;13.33;100.00;99731.06;4986859;28;20042;-84
2022/05/30 02:50:27;;;;;;;22.77;5.90;;;;;;;13.56;100.00;99739.53;4975962;28;20049;-85
2022/05/30 02:53:14;;;;;;;9.88;4.95;;;;;;;13.54;100.00;99738.94;4991946;28;20098;-83
2022/05/30 02:55:59;;;;;;;8.65;5.80;;;;;;;13.42;100.00;99741.34;5010872;28;20108;-84
2022/05/30 02:58:35;;;;;;;8.57;5.93;;;;;;;13.45;100.00;99745.47;4993724;28;20042;-85
2022/05/30 03:01:04;;;;;;;8.93;5.88;;;;;;;13.39;100.00;99744.41;4992197;28;20034;-83
2022/05/30 03:03:35;;;;;;;15.32;5.95;;;;;;;13.57;100.00;99751.03;4992041;28;20030;-83
2022/05/30 03:06:10;;;;;;;9.15;6.93;;;;;;;13.71;100.00;99748.22;4992918;28;20018;-83
2022/05/30 03:08:48;;;;;;;14.45;6.97;;;;;;;13.65;100.00;99751.69;5002656;28;20053;-84
2022/05/30 03:11:53;;;;;;;12.68;7.18;;;;;;;13.56;100.00;99755.53;5009925;28;20113;-83
2022/05/30 03:14:18;;;;;;;11.85;6.97;;;;;;;13.50;100.00;99752.84;4988865;28;20045;-84
2022/05/30 03:16:55;;;;;;;14.15;6.95;;;;;;;13.45;100.00;99745.47;5007685;28;20397;-83
2022/05/30 03:19:25;;;;;;;10.38;7.50;;;;;;;13.48;100.00;99746.91;4989990;28;20034;-83
2022/05/30 03:22:06;;;;;;;12.90;7.88;;;;;;;13.47;100.00;99748.75;4972393;28;20046;-83
2022/05/30 03:24:45;;;;;;;14.88;8.15;;;;;;;13.64;100.00;99749.19;4989887;28;20026;-83
2022/05/30 03:27:23;;;;;;;16.55;8.70;;;;;;;13.68;100.00;99753.13;5006017;28;20548;-85
2022/05/30 03:29:53;;;;;;;11.15;8.32;;;;;;;13.70;100.00;99746.56;5008544;28;20030;-84
2022/05/30 03:32:23;;;;;;;13.55;8.43;;;;;;;13.65;100.00;99749.03;4986538;28;20074;-85
2022/05/30 03:34:59;;;;;;;11.13;8.40;;;;;;;13.71;100.00;99748.22;5009097;28;20061;-84
2022/05/30 03:37:35;;;;;;;13.27;8.15;;;;;;;13.74;100.00;99755.78;4986399;28;20034;-83
2022/05/30 03:40:20;;;;;;;11.90;8.50;;;;;;;13.79;100.00;99761.31;4989629;28;20121;-84
2022/05/30 03:43:10;;;;;;;13.32;8.63;;;;;;;13.70;100.00;99770.53;5006445;28;20053;-84
2022/05/30 03:45:38;;;;;;;14.25;8.70;;;;;;;13.63;100.00;99764.34;4973981;28;20039;-84
2022/05/30 03:48:05;;;;;;;18.55;9.50;;;;;;;13.55;100.00;99767.22;4992516;28;20054;-84
2022/05/30 03:50:32;;;;;;;16.75;9.60;;;;;;;13.67;100.00;99768.25;5009291;28;20078;-83
2022/05/30 03:53:05;;;;;;;13.23;10.20;;;;;;;13.58;100.00;99780.13;4991433;28;20054;-83
2022/05/30 03:55:40;;;;;;;13.40;9.15;;;;;;;13.72;100.00;99778.31;4992287;28;20031;-84
2022/05/30 03:58:09;;;;;;;13.23;9.05;;;;;;;13.76;100.00;99785.69;4992560;28;20038;-84
2022/05/30 04:00:52;;;;;;;12.95;8.98;;;;;;;13.69;100.00;99787.50;5007056;28;20076;-84
2022/05/30 04:03:18;;;;;;;15.63;9.55;;;;;;;13.72;100.00;99783.66;4991103;28;20042;-84
2022/05/30 04:05:46;;;;;;;13.70;9.25;;;;;;;13.72;100.00;99783.66;5005795;28;20045;-82
2022/05/30 04:08:18;;;;;;;14.05;10.23;;;;;;;13.58;100.00;99790.78;4990187;28;20018;-82
2022/05/30 04:11:06;;;;;;;16.98;10.38;;;;;;;13.64;100.00;99799.78;4993318;28;20052;-83
2022/05/30 04:14:11;;;;;;;13.23;9.90;;;;;;;13.63;100.00;99801.63;4994355;28;20049;-83
2022/05/30 04:16:47;;;;;;;16.95;10.13;;;;;;;13.60;100.00;99807.34;5009115;28;20038;-83
2022/05/30 04:19:12;;;;;;;15.65;10.70;;;;;;;13.53;100.00;99809.16;4985766;28;20042;-83
2022/05/30 04:21:44;;;;;;;12.57;9.85;;;;;;;13.55;100.00;99804.47;4988294;28;20039;-83
2022/05/30 04:24:12;;;;;;;17.20;10.43;;;;;;;13.61;100.00;99811.66;4994968;28;20494;-82
2022/05/30 04:26:53;;;;;;;13.27;9.32;;;;;;;13.71;100.00;99809.47;4996655;28;20170;-84
2022/05/30 04:29:34;;;;;;;16.35;9.27;;;;;;;13.67;100.00;99818.84;4995857;28;20038;-82
2022/05/30 04:32:24;;;;;;;20.33;9.45;;;;;;;13.82;100.00;99816.06;5005786;28;20045;-83
2022/05/30 04:34:54;;;;;;;14.52;9.38;;;;;;;13.82;100.00;99816.06;4987851;28;20042;-82
2022/05/30 04:37:21;;;;;;;13.00;9.20;;;;;;;13.81;100.00;99825.88;5002850;28;20070;-83
2022/05/30 04:39:54;;;;;;;15.27;9.85;;;;;;;13.76;100.00;99828.31;4984521;28;20540;-89
2022/05/30 04:42:40;;;;;;;15.30;8.77;;;;;;;13.88;100.00;99821.41;5001039;28;20037;-81
2022/05/30 04:45:57;;;;;;;16.38;8.95;;;;;;;13.92;100.00;99822.63;5013252;22;20061;-81
2022/05/30 04:51:17;;;;;;;18.02;8.70;;;;;;;13.78;100.00;99831.63;4923751;26;20052;-80
2022/05/30 04:53:52;;;;;;;15.60;9.80;;;;;;;13.96;100.00;99831.84;5047765;28;20037;-81
2022/05/30 04:57:05;;;;;;;17.63;9.98;;;;;;;13.84;100.00;99827.31;5036916;28;20041;-83
2022/05/30 04:59:41;;;;;;;12.95;9.30;;;;;;;13.83;100.00;99839.81;5043066;28;20459;-82
2022/05/30 05:02:12;;;;;;;17.75;9.45;;;;;;;13.76;100.00;99833.63;5046432;28;20036;-83
2022/05/30 05:04:44;;;;;;;;;;;;;;;13.67;100.00;99831.34;5049655;28;20044;-83
2022/05/30 05:07:10;;;;;;;14.70;9.70;;;;;;;13.63;100.00;99830.91;5040119;28;19923;-83
2022/05/30 05:09:52;;;;;;;16.83;10.05;;;;;;;13.70;100.00;99830.94;5038560;28;20115;-81
2022/05/30 05:12:43;;;;;;;13.77;9.63;;;;;;;13.73;100.00;99834.03;5060741;28;20049;-82
2022/05/30 05:15:33;;;;;;;15.05;10.38;;;;;;;13.74;100.00;99832.19;5027569;28;20064;-83
2022/05/30 05:18:22;;;;;;;18.25;9.88;;;;;;;13.70;100.00;99838.94;5024210;28;20132;-86
2022/05/30 05:20:50;;;;;;;15.93;9.82;;;;;;;13.62;100.00;99837.25;5056669;28;20499;-85
2022/05/30 05:23:16;;;;;;;18.27;9.07;;;;;;;13.57;100.00;99838.88;5058030;28;20034;-84
2022/05/30 05:25:55;;;;;;;12.30;9.38;;;;;;;13.57;100.00;99831.72;5037282;28;20025;-83
2022/05/30 05:28:38;;;;;;;14.13;9.75;;;;;;;13.47;100.00;99828.59;5049051;28;20054;-80
2022/05/30 05:31:07;;;;;;;14.00;9.65;;;;;;;13.44;100.00;99850.28;5058838;28;20123;-83
2022/05/30 05:33:33;;;;;;;15.93;11.18;;;;;;;13.45;100.00;99841.28;5079478;28;20092;-85
2022/05/30 05:35:58;;;;;;;15.85;10.05;;;;;;;13.57;100.00;99839.69;5063566;28;20044;-85
2022/05/30 05:38:24;;;;;;;21.30;11.13;;;;;;;13.35;100.00;99840.81;5080577;28;20029;-82
2022/05/30 05:41:14;;;;;;;16.20;10.32;;;;;;;13.58;100.00;99845.84;5083035;28;20117;-85
2022/05/30 05:44:01;;;;;;;16.15;11.15;;;;;;;13.46;100.00;99838.41;5063443;28;20036;-87
2022/05/30 05:46:30;;;;;;;16.55;11.23;;;;;;;13.34;100.00;99831.19;5063788;28;20081;-86
2022/05/30 05:48:57;;;;;;;18.70;11.10;;;;;;;13.45;100.00;99835.97;5080883;28;20423;-90
2022/05/30 05:51:24;;;;;;;18.52;11.65;;;;;;;13.59;100.00;99834.19;5080698;28;20033;-87
2022/05/30 05:53:50;;;;;;;18.15;11.30;;;;;;;13.61;100.00;99835.63;5022582;28;20033;-87
2022/05/30 05:56:19;;;;;;;16.80;11.15;;;;;;;13.61;100.00;99835.63;5066886;28;20025;-86
2022/05/30 05:58:45;;;;;;;24.50;12.77;;;;;;;13.85;100.00;99840.41;5041045;28;20052;-86
2022/05/30 06:01:14;;;;;;;20.98;12.77;;;;;;;13.80;100.00;99829.56;5042703;28;20044;-86
2022/05/30 06:03:47;;;;;;;21.67;11.35;;;;;;;13.84;100.00;99840.63;5045551;28;20033;-88
2022/05/30 06:06:36;;;;;;;19.65;11.20;;;;;;;13.97;100.00;99830.03;5042472;28;20029;-88
2022/05/30 06:09:04;;;;;;;16.77;10.68;;;;;;;14.17;100.00;99824.75;5038746;28;20075;-88
2022/05/30 06:12:07;;;;;;;15.80;8.68;;;;;;;13.99;100.00;99834.13;5053409;28;20041;-88
2022/05/30 06:14:36;;;;;;;16.02;8.10;;;;;;;13.97;100.00;99838.84;5050797;28;20044;-85
2022/05/30 06:17:04;;;;;;;12.27;8.63;;;;;;;14.07;100.00;99834.97;5064213;28;20037;-86
2022/05/30 06:19:31;;;;;;;13.23;6.93;;;;;;;14.01;100.00;99835.78;5064841;28;20511;-88
2022/05/30 06:22:00;;;;;;;14.20;7.60;;;;;;;13.94;100.00;99831.25;5067711;28;20047;-86
2022/05/30 06:24:27;;;;;;;12.90;6.35;;;;;;;13.99;100.00;99828.78;5066959;28;20036;-87
2022/05/30 06:27:22;;;;;;;10.43;5.53;;;;;;;14.14;100.00;99835.81;5082524;28;20052;-89
2022/05/30 06:30:20;;;;;;;14.63;6.03;;;;;;;14.08;100.00;99831.28;5067276;28;20479;-85
2022/05/30 06:32:46;;;;;;;14.38;5.05;;;;;;;14.26;100.00;99840.34;5068260;28;20028;-89
2022/05/30 06:35:27;;;;;;;18.25;5.65;;;;;;;14.20;100.00;99840.31;5054258;28;20040;-86
2022/05/30 06:37:53;;;;;;;9.18;4.38;;;;;;;14.21;100.00;99863.28;5067158;28;20039;-88
2022/05/30 06:40:25;;;;;;;13.07;4.68;;;;;;;14.06;100.00;99865.28;5069687;28;20100;-89
2022/05/30 06:42:59;;;;;;;10.23;4.47;;;;;;;14.14;100.00;99859.78;5066974;28;20040;-88
2022/05/30 06:45:34;;;;;;;6.55;3.65;;;;;;;14.10;100.00;99856.69;5070026;28;20044;-85
2022/05/30 06:48:19;;;;;;;7.13;3.75;;;;;;;14.15;100.00;99859.56;5076364;28;20052;-86
2022/05/30 06:51:11;;;;;;;7.72;4.00;;;;;;;14.21;100.00;99863.28;5050674;28;20041;-87
2022/05/30 06:53:46;;;;;;;6.28;3.38;;;;;;;14.27;100.00;99871.31;5065643;28;20037;-87
2022/05/30 06:56:19;;;;;;;7.00;3.33;;;;;;;14.18;100.00;99864.53;5028354;28;20037;-86
2022/05/30 06:58:50;;;;;;;8.90;3.78;;;;;;;14.15;100.00;99869.44;5045340;28;20190;-88
2022/05/30 07:01:18;;;;;;;6.22;3.40;;;;;;;14.15;100.00;99874.75;5027518;28;20391;-88
2022/05/30 07:04:04;;;;;;;12.25;3.53;;;;;;;14.22;100.00;99865.75;5031972;28;20041;-90
2022/05/30 07:06:48;;;;;;;10.05;4.25;;;;;;;14.26;100.00;99877.66;5061941;28;20050;-87
2022/05/30 07:09:38;;;;;;;6.85;3.22;;;;;;;14.37;100.00;99874.44;5042890;28;20052;-87
2022/05/30 07:12:31;;;;;;;6.45;3.42;;;;;;;14.46;100.00;99875.88;5038188;28;20128;-86
2022/05/30 07:14:58;;;;;;;9.05;4.18;;;;;;;14.52;100.00;99882.25;5043446;28;20032;-86
2022/05/30 07:17:26;;;;;;;8.63;4.40;;;;;;;14.61;100.00;99886.38;5060895;28;20051;-88
2022/05/30 07:19:52;;;;;;;7.72;4.40;;;;;;;14.61;100.00;99878.38;5042178;28;20045;-88
2022/05/30 07:22:29;;;;;;;6.65;3.90;;;;;;;14.63;100.00;99884.31;5045059;28;20033;-89
2022/05/30 07:25:16;;;;;;;11.63;4.22;;;;;;;14.86;100.00;99876.72;5063616;28;20052;-90
2022/05/30 07:28:14;;;;;;;11.70;3.88;;;;;;;14.77;100.00;99887.81;4989849;28;20043;-88
2022/05/30 07:31:07;;;;;;;6.97;4.38;;;;;;;14.75;100.00;99903.22;5065897;28;20063;-87
2022/05/30 07:34:08;;;;;;;7.75;3.70;;;;;;;15.02;100.00;99892.31;4997778;28;20035;-87
2022/05/30 07:36:53;;;;;;;6.00;3.80;;;;;;;15.02;100.00;99905.66;5019944;28;20060;-88
2022/05/30 07:39:39;;;;;;;9.48;3.70;;;;;;;15.04;100.00;99907.31;5038566;28;20049;-87
2022/05/30 07:42:21;;;;;;;9.05;4.00;;;;;;;15.05;100.00;99904.44;5040991;28;20415;-85
2022/05/30 07:44:59;;;;;;;5.30;3.55;;;;;;;14.79;100.00;99910.59;5027781;28;20487;-86
2022/05/30 07:47:51;;;;;;;7.13;4.03;;;;;;;14.79;100.00;99915.91;5020008;28;20043;-84
2022/05/30 07:50:38;;;;;;;11.15;3.95;;;;;;;14.88;100.00;99914.69;5037923;28;20041;-85
2022/05/30 07:53:11;;;;;;;7.65;3.70;;;;;;;15.05;100.00;99914.31;5049092;28;20040;-86
2022/05/30 07:55:49;;;;;;;5.90;3.70;;;;;;;15.02;100.00;99904.84;5067737;28;20078;-88
2022/05/30 07:58:56;;;;;;;5.50;3.55;;;;;;;15.04;100.00;99899.31;5045144;28;20399;-86
2022/05/30 08:01:25;;;;;;;9.93;3.83;;;;;;;15.19;100.00;99902.56;5030418;28;20079;-87
2022/05/30 08:03:54;;;;;;;10.68;3.50;;;;;;;15.24;100.00;99908.13;5041282;28;20475;-88
2022/05/30 08:06:32;;;;;;;12.40;3.72;;;;;;;15.50;100.00;99903.59;5040531;28;20045;-86
2022/05/30 08:09:19;;;;;;;9.73;4.53;;;;;;;15.62;100.00;99917.13;5059693;28;20029;-88
2022/05/30 08:12:05;;;;;;;12.13;4.03;;;;;;;15.62;100.00;99918.97;5063742;28;20036;-90
2022/05/30 08:14:49;;;;;;;9.10;4.22;;;;;;;15.48;100.00;99918.16;5044281;28;20131;-88
2022/05/30 08:17:15;;;;;;;6.43;3.53;;;;;;;15.52;100.00;99916.72;5028988;28;20101;-85
2022/05/30 08:19:44;;;;;;;5.78;3.72;;;;;;;15.55;100.00;99926.16;5058464;28;20086;-86
2022/05/30 08:22:18;;;;;;;10.30;4.05;;;;;;;15.33;100.00;99917.56;5044891;28;20060;-87
2022/05/30 08:24:53;;;;;;;7.28;4.25;;;;;;;15.35;100.00;99923.50;5033608;28;20041;-86
2022/05/30 08:27:20;;;;;;;6.97;4.47;;;;;;;15.41;100.00;99920.03;5054291;28;20017;-86
2022/05/30 08:29:57;;;;;;;7.78;4.03;;;;;;;15.48;100.00;99918.16;5058097;28;20009;-85
2022/05/30 08:32:23;;;;;;;9.70;4.28;;;;;;;15.43;100.00;99925.97;5057874;28;20040;-87
2022/05/30 08:35:19;;;;;;;8.63;4.40;;;;;;;15.37;100.00;99918.78;5017074;28;20037;-82
2022/05/30 08:37:46;;;;;;;13.93;4.53;;;;;;;15.37;100.00;99930.31;5055855;28;20018;-85
2022/05/30 08:43:03;;;;;;;4.25;3.58;;;;;;;15.51;100.00;99931.13;5054591;28;20041;-84
2022/05/30 08:45:41;;;;;;;7.28;4.30;;;;;;;15.61;100.00;99936.84;5053359;28;20018;-87
2022/05/30 08:48:41;;;;;;;6.75;3.97;;;;;;;15.53;100.00;99929.06;5055533;28;20116;-87
2022/05/30 08:51:33;;;;;;;7.20;4.20;;;;;;;15.52;100.00;99941.59;5057331;28;20106;-86
2022/05/30 08:54:37;;;;;;;5.47;3.85;;;;;;;15.35;100.00;99939.53;5071387;28;20051;-87
2022/05/30 08:58:11;;;;;;;8.45;4.15;;;;;;;15.55;100.00;99945.69;5053456;28;20033;-91
2022/05/30 09:01:01;;;;;;;6.97;3.60;;;;;;;15.54;100.00;99951.25;4991530;28;20074;-91
2022/05/30 09:04:13;;;;;;;5.85;3.22;;;;;;;15.42;100.00;99951.03;4966195;28;20097;-91
2022/05/30 09:07:11;;;;;;;9.88;3.63;;;;;;;15.44;100.00;99949.78;4990425;28;20138;-87
2022/05/30 09:10:17;;;;;;;4.90;3.33;;;;;;;15.51;100.00;99947.16;5128475;23;20073;-87
2022/05/30 09:12:48;;;;;;;9.73;3.65;;;;;;;15.58;100.00;99939.13;5027474;28;20123;-90
2022/05/30 09:16:03;;;;;;;7.82;3.75;;;;;;;15.55;100.00;99953.72;5043923;28;20050;-89
2022/05/30 09:18:54;;;;;;;9.45;3.75;;;;;;;15.80;100.00;99957.38;5024011;28;20548;-91
2022/05/30 09:24:38;;;;;;;11.52;3.80;;;;;;;15.74;100.00;99949.38;3266533;26;20033;-89
2022/05/30 09:30:01;;;;;;;10.50;4.03;;;;;;;16.00;100.00;99958.13;3983598;26;20048;-91
2022/05/30 09:33:18;;;;;;;11.25;3.53;;;;;;;16.19;100.00;99951.06;5068598;23;20292;-90
2022/05/30 09:36:52;;;;;;;7.32;3.72;;;;;;;16.13;100.00;99956.44;5049460;28;20068;-92
2022/05/30 09:39:48;;;;;;;7.32;3.70;;;;;;;16.23;100.00;99962.16;5052123;28;20063;-88
2022/05/30 09:42:45;;;;;;;4.82;2.72;;;;;;;16.22;100.00;99972.03;5031679;28;20040;-88
2022/05/30 09:45:40;;;;;;;7.32;3.45;;;;;;;16.20;100.00;99957.25;5063341;28;20035;-89
2022/05/30 09:48:47;;;;;;;;;;;;;;;;;;;;;
2022/05/30 09:51:37;;;;;;;8.32;3.50;;;;;;;16.47;100.00;99969.47;4881013;29;20061;-90
2022/05/30 09:54:11;;;;;;;5.10;3.20;;;;;;;16.22;100.00;99971.19;4925052;29;20076;-87
2022/05/30 09:56:44;;;;;;;9.55;3.30;;;;;;;16.32;100.00;99974.25;4924849;29;20036;-86
2022/05/30 09:59:25;;;;;;;4.77;2.90;;;;;;;16.26;100.00;99964.41;4924466;28;20055;-90
2022/05/30 10:02:27;;;;;;;5.35;3.20;;;;;;;16.44;100.00;99969.84;5001218;28;20057;-85
2022/05/30 10:05:25;;;;;;;5.70;3.13;;;;;;;16.47;100.00;99974.81;5010333;23;20076;-82
2022/05/30 10:07:59;;;;;;;4.68;3.10;;;;;;;16.57;100.00;99979.72;5034598;28;20132;-87
2022/05/30 10:10:53;;;;;;;6.13;2.87;;;;;;;16.54;100.00;99975.56;5014737;28;20025;-85
2022/05/30 10:13:40;;;;;;;8.07;3.03;;;;;;;16.68;100.00;99976.34;5034704;28;20292;-85
2022/05/30 10:16:33;;;;;;;4.97;2.97;;;;;;;16.85;100.00;99962.25;5041545;28;20041;-85
2022/05/30 10:19:09;;;;;;;7.22;2.92;;;;;;;17.13;100.00;99964.53;5014054;28;20031;-88
2022/05/30 10:28:51;;;;;;;10.23;3.15;;;;;;;16.90;100.00;99959.72;5053563;28;20091;-83
2022/05/30 10:31:52;;;;;;;6.47;2.72;;;;;;;16.92;100.00;99960.34;5067994;28;20056;-86
2022/05/30 10:34:23;;;;;;;3.30;2.30;;;;;;;17.07;100.00;99969.94;5048182;28;20452;-86
2022/05/30 10:37:21;;;;;;;4.32;2.65;;;;;;;17.18;100.00;99971.88;5051529;28;20602;-86
2022/05/30 10:40:09;;;;;;;4.07;2.80;;;;;;;17.23;100.00;99961.34;5030155;28;20466;-86
2022/05/30 10:43:17;;;;;;;6.10;2.33;;;;;;;17.14;99.89;99959.97;5047691;28;20032;-88
2022/05/30 10:46:27;;;;;;;4.18;1.80;;;;;;;17.15;96.39;99964.28;5031091;28;20061;-85
2022/05/30 10:49:21;;;;;;;3.40;2.08;;;;;;;17.41;96.11;99958.72;5024677;28;20104;-85
2022/05/30 10:52:24;;;;;;;4.87;2.70;;;;;;;17.24;99.38;99961.13;5039596;28;20065;-84
2022/05/30 10:55:30;;;;;;;6.05;2.45;;;;;;;17.56;100.00;99969.97;5031633;28;20038;-86
2022/05/30 10:58:09;;;;;;;7.07;2.70;;;;;;;17.78;99.94;99965.81;5050137;28;20088;-86
2022/05/30 11:00:47;;;;;;;4.82;2.72;;;;;;;17.89;97.55;99965.09;5105840;23;20065;-89
2022/05/30 11:03:47;;;;;;;4.38;2.33;;;;;;;17.97;96.93;99977.34;5029623;28;20044;-89
2022/05/30 11:06:24;;;;;;;5.13;2.63;;;;;;;18.25;94.27;99968.78;5026960;28;20494;-86
2022/05/30 11:09:16;;;;;;;8.07;2.40;;;;;;;18.31;92.79;99974.06;5027379;28;20033;-85
2022/05/30 11:12:15;;;;;;;4.68;2.63;;;;;;;18.23;92.61;99976.25;5030379;28;20037;-85
2022/05/30 11:15:26;;;;;;;4.20;2.35;;;;;;;18.31;92.37;99983.97;5034684;28;20101;-91
2022/05/30 11:18:49;;;;;;;5.78;2.88;;;;;;;18.29;92.62;99981.53;5190678;22;20041;-89
2022/05/30 11:21:43;;;;;;;19.37;12.17;;;;;;;18.52;93.01;99970.94;5086365;23;20065;-90
2022/05/30 11:24:25;;;;;;;5.60;3.08;;;;;;;19.04;88.92;99985.47;5028776;28;20034;-87
2022/05/30 11:27:27;;;;;;;7.85;3.15;;;;;;;18.79;90.32;99978.63;5015802;28;20041;-91
2022/05/30 11:30:11;;;;;;;6.10;2.78;;;;;;;18.67;89.71;99978.56;5047488;28;20063;-87
2022/05/30 11:32:42;;;;;;;3.63;2.72;;;;;;;18.73;87.69;99977.66;5051353;28;20033;-86
2022/05/30 11:35:34;;;;;;;9.43;3.33;;;;;;;18.64;90.13;99984.41;5063746;28;20072;-88
2022/05/30 11:41:08;;;;;;;4.07;3.17;;;;;;;18.63;89.24;99982.75;4447347;22;19233033;-84
2022/05/30 11:44:03;;;;;;;5.30;3.40;;;;;;;18.58;88.06;99979.94;5004022;28;20022;-87
2022/05/30 11:47:13;;;;;;;7.20;2.80;;;;;;;18.72;88.57;99978.72;5011472;28;20113;-85
2022/05/30 11:49:59;;;;;;;4.05;2.97;;;;;;;18.74;88.25;99982.00;5032171;28;20104;-86
2022/05/30 11:53:02;;;;;;;4.15;3.30;;;;;;;18.59;90.29;99979.69;5038747;22;20037;-87
2022/05/30 11:55:49;;;;;;;6.40;2.97;;;;;;;18.76;90.54;99979.88;5040439;28;20040;-85
2022/05/30 11:58:23;;;;;;;4.22;3.17;;;;;;;18.73;90.44;99988.41;5038241;28;20520;-86
2022/05/30 12:01:06;;;;;;;6.22;3.47;;;;;;;18.98;89.22;99981.03;4981300;28;20485;-86
2022/05/30 12:04:02;;;;;;;6.22;3.45;;;;;;;18.88;90.57;99985.31;5023852;28;20660;-85
2022/05/30 12:06:50;;;;;;;4.80;3.15;;;;;;;18.99;90.56;99985.31;5027160;28;20567;-89
2022/05/30 12:09:52;;;;;;;6.18;3.35;;;;;;;18.91;90.55;99976.78;5035449;28;20056;-86
2022/05/30 12:25:44;;;;;;;3.88;2.75;;;;;;;18.92;93.65;99965.84;5060944;28;20107;-89
2022/05/30 12:28:57;;;;;;;4.40;3.35;;;;;;;19.26;92.19;99961.53;5051849;28;20017;-85
2022/05/30 12:31:43;;;;;;;6.40;3.50;;;;;;;19.37;89.12;99966.13;5068141;28;20040;-88
2022/05/30 12:35:18;;;;;;;5.78;3.38;;;;;;;19.09;91.20;99955.22;5050551;28;20080;-89
2022/05/30 12:38:25;;;;;;;5.50;3.40;;;;;;;19.23;89.99;99962.00;5133154;22;20045;-91
2022/05/30 12:41:31;;;;;;;4.90;2.75;;;;;;;19.31;87.62;99968.94;5029488;28;20053;-88
2022/05/30 12:44:25;;;;;;;4.88;2.85;;;;;;;19.34;88.26;99960.41;5044418;28;20058;-88
2022/05/30 12:47:13;;;;;;;5.22;2.75;;;;;;;19.27;88.69;99973.13;5007126;28;20046;-86
2022/05/30 12:55:58;;;;;;;5.50;2.70;;;;;;;18.73;88.75;99974.16;5299630;23;20154;-89
2022/05/30 13:16:18;;;;;;;10.38;2.25;;;;;;;19.06;86.27;99969.94;5203742;22;20045;-87
2022/05/30 13:18:47;;;;;;;3.22;2.08;;;;;;;19.04;86.07;99979.28;5067138;28;20036;-90
2022/05/30 13:21:28;;;;;;;7.57;2.40;;;;;;;19.28;85.39;99980.13;5068128;28;20045;-88
2022/05/30 13:24:00;;;;;;;2.97;2.05;;;;;;;19.10;86.89;99989.91;5027274;28;20048;-86
2022/05/30 13:26:32;;;;;;;3.03;2.10;;;;;;;18.97;87.92;99989.28;5047238;23;20038;-90
2022/05/30 13:29:07;;;;;;;3.45;2.05;;;;;;;18.95;88.20;99991.41;5002857;28;20049;-91
2022/05/30 13:31:33;;;;;;;4.15;2.28;;;;;;;19.07;87.24;99982.31;5023336;28;20524;-88
2022/05/30 13:33:59;;;;;;;3.50;2.20;;;;;;;19.10;87.61;99973.78;5034708;28;20048;-87
2022/05/30 13:36:34;;;;;;;5.25;2.20;;;;;;;18.93;87.34;99988.94;5034406;28;20048;-87
2022/05/30 13:39:03;;;;;;;2.58;1.80;;;;;;;19.02;87.38;99979.50;5041873;28;20064;-84
2022/05/30 13:41:37;;;;;;;4.65;1.95;;;;;;;19.13;86.99;99983.25;5016659;28;20510;-83
2022/05/30 13:44:09;;;;;;;5.32;2.10;;;;;;;19.29;85.29;99982.56;5047849;28;20044;-84
2022/05/30 13:46:49;;;;;;;5.88;2.20;;;;;;;19.18;86.06;99982.56;5048599;28;20042;-86
2022/05/30 13:49:40;;;;;;;4.93;2.05;;;;;;;19.08;86.91;99986.66;5049742;28;20036;-86
2022/05/30 13:52:18;;;;;;;3.20;2.13;;;;;;;19.06;87.66;99980.66;5036813;28;20032;-86
2022/05/30 13:54:50;;;;;;;4.00;2.20;;;;;;;19.16;86.96;99976.63;5063174;28;20041;-87
2022/05/30 13:57:15;;;;;;;3.72;2.08;;;;;;;19.17;87.29;99979.06;5032391;28;20048;-87
2022/05/30 13:59:53;;;;;;;4.78;2.15;;;;;;;19.21;87.70;99979.41;5049204;28;20552;-87
2022/05/30 14:02:26;;;;;;;5.68;1.70;;;;;;;19.28;88.16;99980.97;5047430;28;20057;-89
2022/05/30 14:05:03;;;;;;;4.45;2.28;;;;;;;19.43;87.31;99972.47;5047350;28;20036;-86
2022/05/30 14:08:07;;;;;;;3.47;2.10;;;;;;;19.34;88.24;99973.84;5022192;28;20465;-85
2022/05/30 14:10:59;;;;;;;3.53;2.50;;;;;;;19.29;87.71;99966.47;5048192;28;20048;-85
2022/05/30 14:13:45;;;;;;;5.00;2.70;;;;;;;19.35;87.51;99973.63;5050027;28;20044;-84
2022/05/30 14:16:37;;;;;;;3.22;2.10;;;;;;;19.43;88.09;99977.84;5032911;28;20044;-90
2022/05/30 14:21:40;;;;;;;7.82;4.95;;;;;;;19.46;89.32;99978.19;5047431;28;20393;-84
2022/05/30 14:24:26;;;;;;;7.50;4.82;;;;;;;19.55;89.11;99978.69;5070858;28;20065;-84